createdAt,value
2023-01-25T00:03:07.639Z,4.37
2023-01-25T00:06:22.599Z,4.35
2023-01-25T00:09:31.283Z,4.33
2023-01-25T00:12:45.572Z,4.35
2023-01-25T00:16:03.240Z,4.35
2023-01-25T00:19:18.622Z,4.34
2023-01-25T00:22:33.611Z,4.32
2023-01-25T00:25:35.694Z,4.36
2023-01-25T00:29:01.610Z,4.47
2023-01-25T00:32:29.851Z,4.50
2023-01-25T00:35:45.571Z,4.52
2023-01-25T00:38:54.763Z,4.51
2023-01-25T00:42:03.634Z,4.48
2023-01-25T00:45:12.637Z,4.48
2023-01-25T00:48:21.168Z,4.44
2023-01-25T00:51:30.632Z,4.39
2023-01-25T00:54:39.477Z,4.43
2023-01-25T00:57:47.630Z,4.42
2023-01-25T01:01:03.625Z,4.43
2023-01-25T01:04:06.591Z,4.45
2023-01-25T01:07:21.612Z,4.47
2023-01-25T01:10:23.456Z,4.40
2023-01-25T01:13:38.616Z,4.44
2023-01-25T01:16:41.041Z,4.45
2023-01-25T01:19:55.591Z,4.47
2023-01-25T01:23:03.609Z,4.43
2023-01-25T01:26:14.964Z,4.37
2023-01-25T01:29:23.644Z,4.37
2023-01-25T01:32:32.436Z,4.32
2023-01-25T01:35:40.686Z,4.31
2023-01-25T01:38:56.733Z,4.25
2023-01-25T01:41:58.613Z,4.23
2023-01-25T01:45:33.684Z,4.21
2023-01-25T01:49:01.313Z,4.19
2023-01-25T01:52:22.673Z,4.11
2023-01-25T01:55:31.642Z,4.07
2023-01-25T01:58:42.462Z,4.12
2023-01-25T02:01:51.660Z,4.00
2023-01-25T02:05:03.712Z,3.82
2023-01-25T02:08:14.628Z,3.82
2023-01-25T02:11:32.665Z,3.80
2023-01-25T02:14:48.408Z,3.81
2023-01-25T02:18:02.649Z,3.83
2023-01-25T02:21:12.095Z,3.73
2023-01-25T02:24:32.636Z,3.79
2023-01-25T02:27:38.031Z,3.82
2023-01-25T02:30:54.686Z,3.74
2023-01-25T02:33:56.521Z,3.74
2023-01-25T02:37:11.633Z,3.82
2023-01-25T02:40:19.652Z,3.81
2023-01-25T02:43:31.481Z,3.84
2023-01-25T02:46:41.664Z,3.79
2023-01-25T02:49:50.509Z,3.86
2023-01-25T02:52:58.702Z,3.95
2023-01-25T02:56:14.750Z,3.90
2023-01-25T02:59:16.573Z,3.67
2023-01-25T03:02:31.691Z,3.65
2023-01-25T03:05:33.714Z,3.63
2023-01-25T03:08:49.635Z,3.65
2023-01-25T03:12:04.701Z,3.61
2023-01-25T03:15:13.003Z,3.61
2023-01-25T03:18:28.639Z,3.67
2023-01-25T03:21:37.648Z,3.66
2023-01-25T03:24:45.736Z,3.70
2023-01-25T03:28:00.672Z,3.71
2023-01-25T03:31:03.219Z,3.82
2023-01-25T03:34:17.762Z,3.87
2023-01-25T03:37:26.329Z,3.88
2023-01-25T03:40:41.695Z,3.88
2023-01-25T03:43:49.650Z,3.97
2023-01-25T03:46:58.340Z,3.98
2023-01-25T03:50:06.692Z,4.02
2023-01-25T03:53:25.660Z,3.94
2023-01-25T03:56:33.716Z,4.01
2023-01-25T03:59:42.551Z,4.00
2023-01-25T04:02:50.663Z,3.87
2023-01-25T04:06:06.747Z,3.81
2023-01-25T04:09:08.783Z,3.67
2023-01-25T04:12:24.698Z,3.53
2023-01-25T04:15:33.004Z,3.49
2023-01-25T04:18:47.678Z,3.42
2023-01-25T04:21:49.680Z,3.45
2023-01-25T04:25:04.729Z,3.51
2023-01-25T04:28:12.692Z,3.60
2023-01-25T04:31:21.558Z,3.70
2023-01-25T04:34:29.691Z,3.73
2023-01-25T04:37:38.379Z,3.70
2023-01-25T04:40:47.742Z,3.67
2023-01-25T04:44:02.696Z,3.64
2023-01-25T04:47:10.696Z,3.61
2023-01-25T04:50:25.737Z,3.58
2023-01-25T04:53:37.257Z,3.58
2023-01-25T04:56:51.726Z,3.50
2023-01-25T05:00:00.420Z,3.49
2023-01-25T05:03:09.708Z,3.48
2023-01-25T05:06:24.736Z,3.49
2023-01-25T05:09:26.561Z,3.48
2023-01-25T05:12:41.692Z,3.53
2023-01-25T05:15:50.029Z,3.55
2023-01-25T05:19:04.729Z,3.59
2023-01-25T05:22:12.692Z,3.58
2023-01-25T05:25:21.403Z,3.74
2023-01-25T05:28:29.735Z,3.78
2023-01-25T05:31:38.480Z,3.70
2023-01-25T05:34:47.691Z,3.62
2023-01-25T05:38:04.776Z,3.79
2023-01-25T05:41:07.589Z,3.79
2023-01-25T05:44:23.712Z,3.82
2023-01-25T05:47:25.648Z,3.89
2023-01-25T05:50:41.769Z,3.80
2023-01-25T05:53:43.592Z,3.87
2023-01-25T05:56:58.710Z,3.92
2023-01-25T06:00:14.736Z,3.87
2023-01-25T06:03:23.539Z,3.78
2023-01-25T06:06:38.692Z,3.71
2023-01-25T06:09:40.506Z,3.65
2023-01-25T06:12:55.784Z,3.66
2023-01-25T06:16:10.777Z,3.64
2023-01-25T06:19:19.295Z,3.49
2023-01-25T06:22:33.744Z,3.46
2023-01-25T06:25:35.633Z,3.50
2023-01-25T06:28:52.666Z,3.56
2023-01-25T06:32:01.760Z,3.57
2023-01-25T06:35:16.747Z,3.55
2023-01-25T06:38:18.692Z,3.51
2023-01-25T06:41:34.763Z,3.51
2023-01-25T06:44:43.852Z,3.56
2023-01-25T06:47:52.378Z,3.54
2023-01-25T06:51:02.788Z,3.54
2023-01-25T06:54:17.819Z,3.58
2023-01-25T06:57:26.388Z,3.61
2023-01-25T07:00:34.826Z,3.60
2023-01-25T07:03:43.681Z,3.52
2023-01-25T07:06:51.797Z,3.68
2023-01-25T07:10:09.758Z,3.72
2023-01-25T07:13:24.755Z,3.86
2023-01-25T07:16:26.855Z,3.86
2023-01-25T07:19:41.828Z,3.77
2023-01-25T07:22:53.766Z,3.84
2023-01-25T07:26:09.801Z,3.82
2023-01-25T07:29:20.728Z,4.01
2023-01-25T07:32:35.755Z,3.88
2023-01-25T07:35:46.476Z,3.86
2023-01-25T07:39:01.764Z,3.78
2023-01-25T07:42:16.876Z,3.55
2023-01-25T07:45:19.700Z,3.47
2023-01-25T07:48:41.899Z,3.46
2023-01-25T07:52:06.900Z,3.48
2023-01-25T07:55:21.723Z,3.65
2023-01-25T07:59:07.791Z,3.62
2023-01-25T08:02:16.646Z,3.70
2023-01-25T08:05:31.784Z,3.82
2023-01-25T08:08:43.826Z,3.82
2023-01-25T08:11:52.775Z,3.82
2023-01-25T08:15:00.800Z,3.96
2023-01-25T08:18:09.681Z,4.03
2023-01-25T08:21:18.829Z,3.94
2023-01-25T08:31:12.798Z,4.07
2023-01-25T08:34:27.783Z,4.10
2023-01-25T08:37:42.840Z,4.18
2023-01-25T08:40:52.788Z,4.24
2023-01-25T08:44:01.601Z,4.34
2023-01-25T08:47:09.830Z,4.28
2023-01-25T08:50:18.844Z,4.26
2023-01-25T08:53:27.929Z,4.31
2023-01-25T08:56:47.793Z,4.09
2023-01-25T08:59:49.653Z,3.93
2023-01-25T09:03:04.755Z,4.05
2023-01-25T09:06:13.905Z,4.09
2023-01-25T09:09:22.769Z,4.19
2023-01-25T09:12:38.822Z,4.06
2023-01-25T09:15:40.758Z,3.88
2023-01-25T09:18:55.849Z,3.97
2023-01-25T09:21:57.847Z,3.96
2023-01-25T09:25:12.902Z,3.91
2023-01-25T09:28:29.718Z,3.89
2023-01-25T09:31:46.897Z,3.96
2023-01-25T09:34:55.621Z,3.90
2023-01-25T09:38:03.856Z,3.95
2023-01-25T09:41:39.840Z,4.02
2023-01-25T09:45:06.435Z,3.94
2023-01-25T09:48:40.884Z,3.97
2023-01-25T09:52:22.806Z,3.90
2023-01-25T09:55:33.344Z,4.01
2023-01-25T09:58:52.955Z,4.08
2023-01-25T10:02:32.522Z,4.11
2023-01-25T10:05:51.849Z,4.18
2023-01-25T10:09:31.830Z,4.29
2023-01-25T10:12:40.877Z,4.43
2023-01-25T10:15:56.840Z,4.53
2023-01-25T10:19:38.861Z,4.68
2023-01-25T10:22:49.994Z,4.77
2023-01-25T10:32:55.913Z,4.51
2023-01-25T10:36:08.818Z,4.38
2023-01-25T10:39:19.550Z,4.29
2023-01-25T10:42:30.815Z,4.30
2023-01-25T10:45:39.613Z,4.33
2023-01-25T10:48:47.810Z,4.37
2023-01-25T10:52:19.480Z,4.54
2023-01-25T10:55:34.044Z,4.61
2023-01-25T10:58:55.953Z,4.53
2023-01-25T11:02:27.766Z,4.52
2023-01-25T11:05:45.434Z,4.42
2023-01-25T11:08:47.317Z,4.43
2023-01-25T11:12:08.836Z,4.49
2023-01-25T11:15:25.577Z,4.48
2023-01-25T11:18:41.914Z,4.60
2023-01-25T11:21:52.958Z,4.53
2023-01-25T11:25:01.869Z,4.45
2023-01-25T11:28:29.879Z,4.49
2023-01-25T11:31:39.093Z,4.58
2023-01-25T11:34:49.885Z,4.53
2023-01-25T11:38:19.896Z,4.62
2023-01-25T11:41:31.263Z,4.50
2023-01-25T11:45:04.856Z,4.58
2023-01-25T11:48:33.856Z,4.59
2023-01-25T11:52:10.991Z,4.66
2023-01-25T11:55:33.860Z,4.68
2023-01-25T11:58:59.693Z,4.70
2023-01-25T12:02:37.985Z,4.69
2023-01-25T12:06:02.804Z,4.70
2023-01-25T12:13:03.004Z,4.67
2023-01-25T12:16:35.671Z,4.70
2023-01-25T12:20:11.201Z,4.67
2023-01-25T12:23:59.948Z,4.47
2023-01-25T12:27:36.883Z,4.55
2023-01-25T12:30:54.489Z,4.55
2023-01-25T12:34:09.934Z,4.57
2023-01-25T12:37:30.853Z,4.54
2023-01-25T12:40:49.608Z,4.61
2023-01-25T12:44:19.855Z,4.71
2023-01-25T12:47:39.289Z,4.75
2023-01-25T12:51:02.920Z,4.75
2023-01-25T12:54:29.961Z,4.70
2023-01-25T12:57:56.517Z,4.75
2023-01-25T13:01:41.055Z,4.78
2023-01-25T13:05:16.912Z,4.77
2023-01-25T13:09:02.096Z,4.74
2023-01-25T13:12:14.737Z,4.73
2023-01-25T13:15:52.941Z,4.68
2023-01-25T13:19:07.853Z,4.72
2023-01-25T13:23:02.865Z,4.72
2023-01-25T13:26:46.918Z,4.78
2023-01-25T13:30:31.530Z,4.76
2023-01-25T13:34:10.821Z,4.82
2023-01-25T13:37:25.991Z,4.55
2023-01-25T13:40:41.973Z,4.59
2023-01-25T13:44:24.060Z,4.43
2023-01-25T13:47:29.908Z,4.63
2023-01-25T13:50:52.055Z,4.78
2023-01-25T13:54:00.788Z,4.78
2023-01-25T13:57:14.357Z,4.77
2023-01-25T14:00:31.942Z,4.82
2023-01-25T14:03:40.665Z,4.83
2023-01-25T14:06:54.874Z,4.89
2023-01-25T14:09:58.161Z,4.91
2023-01-25T14:13:22.156Z,4.86
2023-01-25T14:16:32.164Z,4.82
2023-01-25T14:19:42.913Z,4.80
2023-01-25T14:22:58.896Z,4.73
2023-01-25T14:26:32.916Z,4.63
2023-01-25T14:29:53.892Z,4.71
2023-01-25T14:33:27.015Z,4.66
2023-01-25T14:36:32.089Z,4.86
2023-01-25T14:39:46.908Z,4.88
2023-01-25T14:42:50.211Z,4.78
2023-01-25T14:46:04.964Z,4.78
2023-01-25T14:49:24.969Z,4.71
2023-01-25T14:52:40.952Z,4.71
2023-01-25T14:55:52.914Z,4.57
2023-01-25T14:59:02.438Z,4.65
2023-01-25T15:02:35.018Z,4.59
2023-01-25T15:05:53.234Z,4.64
2023-01-25T15:08:55.295Z,4.61
2023-01-25T15:12:41.973Z,4.68
2023-01-25T15:16:06.958Z,4.70
2023-01-25T15:19:36.041Z,4.69
2023-01-25T15:22:37.976Z,4.60
2023-01-25T15:25:58.097Z,4.67
2023-01-25T15:29:16.081Z,4.59
2023-01-25T15:32:30.953Z,4.63
2023-01-25T15:35:39.618Z,4.63
2023-01-25T15:38:48.956Z,4.54
2023-01-25T15:42:03.994Z,4.51
2023-01-25T15:45:07.791Z,4.46
2023-01-25T15:48:29.952Z,4.46
2023-01-25T15:51:39.000Z,4.42
2023-01-25T15:55:01.442Z,4.50
2023-01-25T15:58:21.284Z,4.54
2023-01-25T16:01:31.051Z,4.52
2023-01-25T16:04:39.601Z,4.51
2023-01-25T16:07:50.056Z,4.46
2023-01-25T16:11:08.001Z,4.39
2023-01-25T16:14:24.026Z,4.36
2023-01-25T16:17:38.946Z,4.44
2023-01-25T16:20:42.288Z,4.47
2023-01-25T16:23:57.043Z,4.39
2023-01-25T16:27:05.258Z,4.34
2023-01-25T16:30:31.994Z,4.38
2023-01-25T16:33:34.095Z,4.37
2023-01-25T16:36:48.995Z,4.32
2023-01-25T16:39:56.957Z,4.30
2023-01-25T16:43:05.869Z,4.39
2023-01-25T16:46:26.999Z,4.49
2023-01-25T16:49:35.628Z,4.47
2023-01-25T16:52:50.980Z,4.49
2023-01-25T16:55:53.124Z,4.36
2023-01-25T16:59:10.060Z,4.31
2023-01-25T17:02:19.025Z,4.24
2023-01-25T17:05:34.964Z,4.12
2023-01-25T17:08:49.952Z,4.19
2023-01-25T17:11:59.996Z,4.14
2023-01-25T17:15:09.477Z,4.24
2023-01-25T17:18:29.980Z,4.15
2023-01-25T17:21:48.967Z,4.12
2023-01-25T17:25:03.968Z,4.14
2023-01-25T17:28:12.399Z,4.25
2023-01-25T17:31:33.055Z,4.31
2023-01-25T17:34:47.990Z,4.33
2023-01-25T17:37:56.895Z,4.35
2023-01-25T17:41:11.037Z,4.42
2023-01-25T17:44:29.994Z,4.45
2023-01-25T17:47:32.919Z,4.46
2023-01-25T17:50:47.985Z,4.50
2023-01-25T17:53:51.107Z,4.57
2023-01-25T17:57:05.941Z,4.55
2023-01-25T18:00:22.087Z,4.53
2023-01-25T18:03:24.940Z,4.57
2023-01-25T18:06:40.014Z,4.35
2023-01-25T18:09:49.053Z,4.57
2023-01-25T18:13:04.535Z,4.59
2023-01-25T18:16:21.963Z,4.58
2023-01-25T18:19:24.944Z,4.48
2023-01-25T18:22:39.988Z,4.40
2023-01-25T18:25:49.356Z,4.48
2023-01-25T18:29:41.021Z,4.50
2023-01-25T18:32:50.094Z,4.46
2023-01-25T18:36:02.758Z,4.52
2023-01-25T18:39:18.046Z,4.44
2023-01-25T18:42:27.053Z,4.50
2023-01-25T18:45:35.006Z,4.24
2023-01-25T18:48:44.370Z,4.19
2023-01-25T18:52:10.501Z,4.37
2023-01-25T18:55:25.992Z,4.36
2023-01-25T18:58:31.684Z,4.36
2023-01-25T19:01:47.044Z,4.25
2023-01-25T19:04:49.362Z,4.22
2023-01-25T19:08:05.064Z,4.30
2023-01-25T19:11:17.034Z,4.35
2023-01-25T19:14:26.596Z,4.35
2023-01-25T19:17:35.106Z,4.45
2023-01-25T19:20:46.440Z,4.45
2023-01-25T19:23:55.067Z,4.51
2023-01-25T19:27:17.999Z,4.51
2023-01-25T19:30:31.745Z,4.51
2023-01-25T19:33:42.078Z,4.46
2023-01-25T19:36:59.170Z,4.35
2023-01-25T19:40:18.044Z,4.34
2023-01-25T19:43:27.050Z,4.43
2023-01-25T19:46:37.464Z,4.42
2023-01-25T19:49:46.018Z,4.44
2023-01-25T19:52:55.269Z,4.31
2023-01-25T19:56:12.639Z,4.31
2023-01-25T19:59:26.029Z,4.34
2023-01-25T20:02:35.146Z,4.21
2023-01-25T20:05:44.056Z,4.29
2023-01-25T20:09:01.101Z,4.29
2023-01-25T20:12:17.065Z,4.26
2023-01-25T20:15:26.050Z,4.33
2023-01-25T20:18:36.823Z,4.31
2023-01-25T20:21:47.049Z,4.36
2023-01-25T20:24:56.075Z,4.38
2023-01-25T20:28:12.056Z,4.39
2023-01-25T20:31:37.143Z,4.41
2023-01-25T20:34:54.034Z,4.38
2023-01-25T20:38:03.066Z,4.30
2023-01-25T20:41:15.362Z,4.41
2023-01-25T20:44:24.096Z,4.34
2023-01-25T20:47:39.067Z,4.43
2023-01-25T20:50:42.843Z,4.49
2023-01-25T20:53:59.045Z,4.41
2023-01-25T20:57:08.193Z,4.23
2023-01-25T21:00:18.038Z,4.26
2023-01-25T21:03:29.737Z,4.25
2023-01-25T21:06:46.078Z,4.26
2023-01-25T21:10:01.116Z,4.34
2023-01-25T21:13:09.787Z,4.39
2023-01-25T21:16:25.084Z,4.38
2023-01-25T21:19:42.048Z,4.42
2023-01-25T21:22:51.094Z,4.39
2023-01-25T21:26:00.773Z,4.33
2023-01-25T21:29:16.074Z,4.31
2023-01-25T21:32:31.074Z,4.37
2023-01-25T21:35:33.128Z,4.35
2023-01-25T21:38:51.021Z,4.31
2023-01-25T21:41:59.980Z,4.23
2023-01-25T21:45:08.208Z,4.26
2023-01-25T21:48:23.073Z,4.31
2023-01-25T21:51:32.053Z,4.32
2023-01-25T21:54:47.084Z,4.36
2023-01-25T21:57:56.087Z,4.37
2023-01-25T22:01:05.437Z,4.34
2023-01-25T22:04:14.077Z,4.29
2023-01-25T22:07:22.713Z,4.40
2023-01-25T22:10:37.069Z,4.43
2023-01-25T22:13:40.008Z,4.38
2023-01-25T22:16:56.203Z,4.36
2023-01-25T22:19:58.226Z,4.45
2023-01-25T22:23:14.060Z,4.29
2023-01-25T22:26:25.060Z,4.34
2023-01-25T22:29:40.409Z,4.32
2023-01-25T22:32:49.120Z,4.42
2023-01-25T22:36:04.064Z,4.23
2023-01-25T22:39:13.176Z,4.41
2023-01-25T22:42:28.102Z,4.46
2023-01-25T22:45:30.014Z,4.46
2023-01-25T22:48:45.156Z,4.44
2023-01-25T22:51:46.928Z,4.49
2023-01-25T22:55:02.120Z,4.38
2023-01-25T22:58:11.103Z,4.37
2023-01-25T23:01:23.297Z,4.36
2023-01-25T23:04:32.161Z,4.40
2023-01-25T23:07:40.765Z,4.42
2023-01-25T23:10:50.096Z,4.40
2023-01-25T23:14:06.108Z,4.40
2023-01-25T23:17:14.758Z,4.37
2023-01-25T23:20:25.179Z,4.40
2023-01-25T23:23:33.861Z,4.40
2023-01-25T23:26:43.159Z,4.39
2023-01-25T23:29:58.403Z,4.29
2023-01-25T23:33:07.132Z,4.28
2023-01-25T23:36:28.122Z,4.28
2023-01-25T23:39:29.959Z,4.26
2023-01-25T23:42:46.114Z,4.30
2023-01-25T23:45:47.910Z,4.32
2023-01-25T23:49:03.132Z,4.36
2023-01-25T23:52:12.204Z,4.33
2023-01-25T23:55:20.699Z,4.31
2023-01-25T23:58:30.130Z,4.29
